TimeEST,TemperatureF,Dew PointF,Humidity,Sea Level PressureIn,VisibilityMPH,Wind Direction,Wind SpeedMPH,Gust SpeedMPH,PrecipitationIn,Events,Conditions,WindDirDegrees,DateUTC
12:54 AM,21.0,15.1,78,30.17,10.0,North,12.7,-,N/A,,Overcast,10,2013-03-02 05:54:00
1:54 AM,19.9,14.0,78,30.17,10.0,North,12.7,-,N/A,,Overcast,350,2013-03-02 06:54:00
2:54 AM,19.9,14.0,78,30.17,10.0,North,12.7,-,N/A,,Overcast,360,2013-03-02 07:54:00
3:54 AM,19.0,12.9,77,30.16,10.0,North,15.0,-,N/A,,Overcast,360,2013-03-02 08:54:00
4:54 AM,19.0,12.9,77,30.15,10.0,North,11.5,-,N/A,,Overcast,350,2013-03-02 09:54:00
5:44 AM,19.4,12.2,74,30.12,10.0,North,10.4,-,N/A,,Overcast,350,2013-03-02 10:44:00
5:54 AM,18.0,12.9,81,30.16,10.0,North,9.2,-,N/A,,Overcast,350,2013-03-02 10:54:00
6:54 AM,18.0,12.9,81,30.16,10.0,NNW,8.1,-,N/A,,Overcast,330,2013-03-02 11:54:00
7:21 AM,17.6,12.2,79,30.13,10.0,NNW,9.2,-,N/A,,Overcast,340,2013-03-02 12:21:00
7:47 AM,17.6,12.2,79,30.13,9.0,NNW,6.9,-,N/A,,Overcast,330,2013-03-02 12:47:00
7:54 AM,18.0,12.9,81,30.17,8.0,NW,6.9,-,N/A,,Overcast,320,2013-03-02 12:54:00
8:54 AM,18.0,14.0,84,30.17,7.0,NW,9.2,-,0.00,Snow,Light Snow,320,2013-03-02 13:54:00
9:54 AM,19.0,15.1,85,30.17,8.0,NNW,11.5,-,0.00,,Overcast,340,2013-03-02 14:54:00
10:54 AM,19.9,15.1,81,30.16,7.0,North,15.0,-,0.00,Snow,Light Snow,350,2013-03-02 15:54:00
11:54 AM,19.9,15.1,81,30.16,7.0,North,13.8,-,0.00,Snow,Light Snow,360,2013-03-02 16:54:00
12:54 PM,19.9,14.0,78,30.15,6.0,NNW,12.7,-,0.00,Snow,Light Snow,340,2013-03-02 17:54:00
1:54 PM,19.9,14.0,78,30.13,9.0,NNW,13.8,-,0.00,,Overcast,340,2013-03-02 18:54:00
2:54 PM,19.0,12.9,77,30.13,6.0,NNW,13.8,-,0.00,Snow,Light Snow,330,2013-03-02 19:54:00
3:54 PM,19.0,12.0,74,30.12,10.0,NNW,11.5,-,0.00,,Overcast,340,2013-03-02 20:54:00
4:14 PM,19.4,12.2,74,30.08,10.0,NNW,11.5,-,N/A,,Overcast,330,2013-03-02 21:14:00
4:54 PM,19.0,12.0,74,30.13,10.0,NW,10.4,-,N/A,,Overcast,320,2013-03-02 21:54:00
5:41 PM,19.4,10.4,68,30.08,10.0,NNW,9.2,-,N/A,,Partly Cloudy,330,2013-03-02 22:41:00
5:54 PM,19.9,10.9,68,30.13,10.0,NW,4.6,-,N/A,,Clear,310,2013-03-02 22:54:00
6:54 PM,17.1,10.0,74,30.13,10.0,WNW,3.5,-,N/A,,Clear,290,2013-03-02 23:54:00
7:54 PM,15.1,9.0,77,30.12,10.0,West,3.5,-,N/A,,Clear,280,2013-03-03 00:54:00
8:54 PM,16.0,9.0,74,30.11,10.0,WNW,4.6,-,N/A,,Clear,300,2013-03-03 01:54:00
9:54 PM,16.0,10.9,81,30.10,10.0,WNW,4.6,-,N/A,,Clear,290,2013-03-03 02:54:00
10:23 PM,15.8,10.4,79,30.06,10.0,West,5.8,-,N/A,,Mostly Cloudy,280,2013-03-03 03:23:00
10:54 PM,15.1,10.9,84,30.09,10.0,WNW,4.6,-,N/A,,Mostly Cloudy,290,2013-03-03 03:54:00
11:54 PM,16.0,12.0,84,30.09,10.0,West,5.8,-,N/A,,Overcast,280,2013-03-03 04:54:00